createdAt,value
2022-11-30T00:01:24.399Z,92.44
2022-11-30T00:03:57.958Z,92.94
2022-11-30T00:06:26.268Z,93.21
2022-11-30T00:08:55.509Z,92.78
2022-11-30T00:11:25.703Z,92.74
2022-11-30T00:13:53.204Z,93.04
2022-11-30T00:16:20.706Z,92.57
2022-11-30T00:18:47.800Z,92.73
2022-11-30T00:21:15.968Z,92.60
2022-11-30T00:23:46.011Z,93.22
2022-11-30T00:26:18.069Z,93.39
2022-11-30T00:28:46.010Z,92.60
2022-11-30T00:31:17.820Z,92.95
2022-11-30T00:33:45.382Z,92.71
2022-11-30T00:36:17.378Z,92.85
2022-11-30T00:38:45.581Z,92.73
2022-11-30T00:41:14.009Z,93.14
2022-11-30T00:43:41.518Z,93.54
2022-11-30T00:46:09.455Z,93.20
2022-11-30T00:48:38.876Z,93.14
2022-11-30T00:51:08.365Z,92.92
2022-11-30T00:53:35.423Z,92.85
2022-11-30T00:56:02.391Z,93.49
2022-11-30T00:58:29.392Z,92.85
2022-11-30T01:00:56.537Z,93.50
2022-11-30T01:03:23.542Z,93.30
2022-11-30T01:05:50.548Z,93.52
2022-11-30T01:08:17.863Z,93.60
2022-11-30T01:10:45.007Z,92.88
2022-11-30T01:13:13.094Z,93.12
2022-11-30T01:15:43.965Z,93.25
2022-11-30T01:18:12.214Z,92.87
2022-11-30T01:20:43.144Z,92.74
2022-11-30T01:23:11.112Z,93.03
2022-11-30T01:25:38.301Z,92.75
2022-11-30T01:28:05.785Z,92.80
2022-11-30T01:30:32.819Z,92.59
2022-11-30T01:33:05.604Z,93.25
2022-11-30T01:35:32.597Z,92.82
2022-11-30T01:37:59.620Z,92.92
2022-11-30T01:40:26.795Z,92.47
2022-11-30T01:42:54.398Z,92.63
2022-11-30T01:45:21.516Z,92.90
2022-11-30T01:47:54.231Z,92.69
2022-11-30T01:50:33.118Z,92.45
2022-11-30T01:53:01.686Z,92.88
2022-11-30T01:55:46.444Z,92.86
2022-11-30T01:58:24.034Z,93.23
2022-11-30T02:00:51.133Z,93.06
2022-11-30T02:03:40.191Z,93.02
2022-11-30T02:06:08.319Z,92.77
2022-11-30T02:08:35.696Z,93.92
2022-11-30T02:11:18.712Z,93.27
2022-11-30T02:14:26.125Z,92.67
2022-11-30T02:17:33.200Z,92.92
2022-11-30T02:20:55.287Z,92.35
2022-11-30T02:24:06.657Z,92.80
2022-11-30T02:27:10.750Z,92.40
2022-11-30T02:30:11.498Z,93.03
2022-11-30T02:32:56.508Z,92.63
2022-11-30T02:35:30.311Z,93.00
2022-11-30T02:38:03.882Z,92.83
2022-11-30T02:40:31.818Z,93.04
2022-11-30T02:43:05.252Z,93.05
2022-11-30T02:45:44.407Z,92.69
2022-11-30T02:48:20.703Z,93.11
2022-11-30T02:51:07.765Z,93.08
2022-11-30T02:53:38.024Z,92.95
2022-11-30T02:56:05.414Z,93.60
2022-11-30T02:58:35.593Z,93.11
2022-11-30T03:01:02.600Z,93.11
2022-11-30T03:03:29.952Z,92.97
2022-11-30T03:05:57.318Z,93.34
2022-11-30T03:08:32.993Z,93.27
2022-11-30T03:11:05.063Z,93.77
2022-11-30T03:13:37.303Z,93.25
2022-11-30T03:16:13.392Z,92.87
2022-11-30T03:18:41.502Z,93.00
2022-11-30T03:21:11.754Z,92.70
2022-11-30T03:23:41.306Z,92.49
2022-11-30T03:26:09.507Z,92.45
2022-11-30T03:28:37.270Z,92.82
2022-11-30T03:31:06.182Z,92.42
2022-11-30T03:33:33.231Z,92.64
2022-11-30T03:36:10.880Z,92.63
2022-11-30T03:38:38.349Z,92.80
2022-11-30T03:41:16.236Z,92.75
2022-11-30T03:43:45.710Z,92.96
2022-11-30T03:46:13.057Z,93.06
2022-11-30T03:48:43.383Z,93.37
2022-11-30T03:51:12.648Z,93.74
2022-11-30T03:53:40.907Z,93.73
2022-11-30T03:56:12.856Z,92.64
2022-11-30T03:58:40.439Z,92.94
2022-11-30T04:01:10.992Z,93.27
2022-11-30T04:03:39.468Z,93.42
2022-11-30T04:06:09.791Z,93.21
2022-11-30T04:08:38.523Z,93.73
2022-11-30T04:11:06.324Z,93.33
2022-11-30T04:13:36.552Z,93.33
2022-11-30T04:16:04.388Z,93.60
2022-11-30T04:18:33.333Z,93.48
2022-11-30T04:21:01.866Z,93.48
2022-11-30T04:23:37.909Z,92.94
2022-11-30T04:26:10.636Z,92.83
2022-11-30T04:28:37.619Z,93.44
2022-11-30T04:31:07.997Z,93.09
2022-11-30T04:33:38.003Z,92.81
2022-11-30T04:36:07.820Z,93.42
2022-11-30T04:38:36.679Z,93.27
2022-11-30T04:41:08.863Z,92.93
2022-11-30T04:43:36.315Z,92.73
2022-11-30T04:46:05.637Z,92.60
2022-11-30T04:48:32.978Z,93.16
2022-11-30T04:51:06.867Z,92.77
2022-11-30T04:53:37.325Z,92.61
2022-11-30T04:56:11.023Z,92.69
2022-11-30T04:58:39.373Z,92.60
2022-11-30T05:01:07.366Z,93.02
2022-11-30T05:03:34.959Z,92.69
2022-11-30T05:06:03.242Z,93.07
2022-11-30T05:08:30.310Z,93.53
2022-11-30T05:10:57.326Z,93.61
2022-11-30T05:13:26.283Z,93.35
2022-11-30T05:15:54.127Z,92.86
2022-11-30T05:18:21.750Z,92.94
2022-11-30T05:20:50.845Z,93.34
2022-11-30T05:23:19.433Z,92.81
2022-11-30T05:25:47.253Z,93.38
2022-11-30T05:28:14.799Z,92.45
2022-11-30T05:30:43.234Z,92.45
2022-11-30T05:33:10.797Z,93.32
2022-11-30T05:35:40.545Z,92.73
2022-11-30T05:38:07.651Z,92.62
2022-11-30T05:40:34.977Z,92.51
2022-11-30T05:43:04.288Z,92.96
2022-11-30T05:45:31.742Z,93.07
2022-11-30T05:47:58.833Z,92.81
2022-11-30T05:50:25.922Z,93.35
2022-11-30T05:52:56.850Z,92.68
2022-11-30T05:55:25.074Z,92.46
2022-11-30T05:57:52.620Z,92.74
2022-11-30T06:00:21.768Z,91.95
2022-11-30T06:02:48.931Z,92.55
2022-11-30T06:05:16.264Z,92.29
2022-11-30T06:07:43.464Z,92.75
2022-11-30T06:10:11.720Z,92.54
2022-11-30T06:12:38.786Z,92.45
2022-11-30T06:15:06.523Z,92.57
2022-11-30T06:17:33.607Z,92.88
2022-11-30T06:20:00.620Z,92.89
2022-11-30T06:22:27.601Z,92.54
2022-11-30T06:24:54.597Z,92.51
2022-11-30T06:27:21.589Z,92.75
2022-11-30T06:29:48.589Z,91.98
2022-11-30T06:32:15.690Z,91.79
2022-11-30T06:34:42.722Z,91.90
2022-11-30T06:37:09.805Z,91.63
2022-11-30T06:40:04.699Z,92.04
2022-11-30T06:42:26.036Z,92.26
2022-11-30T06:44:52.976Z,92.30
2022-11-30T06:47:20.084Z,91.99
2022-11-30T06:49:47.438Z,92.39
2022-11-30T06:52:14.486Z,92.68
2022-11-30T06:54:41.711Z,92.67
2022-11-30T06:57:08.732Z,92.58
2022-11-30T06:59:42.273Z,92.45
2022-11-30T07:02:18.319Z,92.25
2022-11-30T07:04:46.888Z,92.19
2022-11-30T07:07:14.345Z,92.26
2022-11-30T07:09:41.775Z,92.31
2022-11-30T07:12:09.141Z,92.60
2022-11-30T07:14:36.447Z,92.87
2022-11-30T07:17:06.377Z,92.18
2022-11-30T07:19:36.305Z,92.69
2022-11-30T07:22:03.450Z,92.58
2022-11-30T07:24:49.232Z,92.11
2022-11-30T07:27:16.406Z,92.71
2022-11-30T07:29:43.506Z,92.64
2022-11-30T07:32:10.503Z,91.89
2022-11-30T07:34:37.521Z,92.19
2022-11-30T07:37:04.496Z,92.56
2022-11-30T07:39:31.497Z,92.46
2022-11-30T07:41:58.754Z,91.84
2022-11-30T07:44:25.752Z,92.06
2022-11-30T07:46:52.740Z,91.86
2022-11-30T07:49:19.826Z,92.78
2022-11-30T07:51:47.095Z,92.07
2022-11-30T07:54:14.365Z,92.42
2022-11-30T07:56:41.327Z,92.47
2022-11-30T07:59:09.527Z,92.06
2022-11-30T08:01:37.218Z,92.27
2022-11-30T08:04:04.574Z,91.99
2022-11-30T08:06:32.355Z,91.92
2022-11-30T08:09:03.131Z,92.27
2022-11-30T08:11:36.313Z,91.66
2022-11-30T08:14:04.420Z,91.93
2022-11-30T08:16:39.314Z,92.04
2022-11-30T08:19:06.614Z,92.39
2022-11-30T08:21:36.762Z,91.78
2022-11-30T08:24:04.122Z,91.58
2022-11-30T08:26:33.938Z,91.72
2022-11-30T08:29:01.982Z,91.94
2022-11-30T08:31:35.206Z,91.42
2022-11-30T08:34:11.120Z,90.96
2022-11-30T08:36:40.330Z,90.98
2022-11-30T08:39:11.083Z,91.38
2022-11-30T08:41:39.159Z,90.53
2022-11-30T08:44:07.202Z,91.16
2022-11-30T08:46:50.902Z,91.18
2022-11-30T08:49:22.076Z,90.69
2022-11-30T08:52:16.355Z,90.92
2022-11-30T08:54:48.199Z,90.95
2022-11-30T08:57:21.681Z,90.62
2022-11-30T08:59:49.170Z,90.87
2022-11-30T09:02:19.568Z,90.80
2022-11-30T09:04:49.060Z,90.84
2022-11-30T09:07:16.559Z,90.84
2022-11-30T09:09:43.517Z,90.76
2022-11-30T09:12:10.483Z,90.68
2022-11-30T09:14:37.469Z,90.55
2022-11-30T09:17:05.075Z,91.14
2022-11-30T09:19:32.075Z,91.13
2022-11-30T09:21:59.126Z,91.30
2022-11-30T09:24:26.227Z,91.31
2022-11-30T09:26:57.194Z,91.46
2022-11-30T09:29:24.387Z,91.02
2022-11-30T09:31:51.419Z,90.91
2022-11-30T09:34:18.473Z,91.48
2022-11-30T09:36:45.618Z,91.03
2022-11-30T09:39:13.029Z,90.86
2022-11-30T09:42:19.867Z,90.04
2022-11-30T09:45:16.543Z,90.01
2022-11-30T09:48:50.397Z,90.06
2022-11-30T09:51:47.670Z,89.24
2022-11-30T09:54:35.415Z,90.26
2022-11-30T09:57:48.619Z,89.33
2022-11-30T10:00:24.511Z,88.72
2022-11-30T10:02:57.116Z,89.35
2022-11-30T10:06:06.274Z,89.37
2022-11-30T10:09:32.886Z,89.30
2022-11-30T10:12:21.349Z,89.24
2022-11-30T10:15:11.570Z,89.22
2022-11-30T10:18:03.947Z,88.99
2022-11-30T10:20:39.474Z,88.52
2022-11-30T10:24:06.077Z,89.59
2022-11-30T10:26:38.177Z,89.31
2022-11-30T10:29:45.530Z,89.36
2022-11-30T10:32:29.164Z,88.80
2022-11-30T10:35:40.449Z,88.21
2022-11-30T10:38:54.456Z,87.77
2022-11-30T10:41:57.420Z,87.59
2022-11-30T10:44:44.084Z,87.90
2022-11-30T10:47:21.546Z,87.65
2022-11-30T10:49:53.092Z,87.54
2022-11-30T10:52:53.679Z,87.22
2022-11-30T10:55:36.251Z,87.45
2022-11-30T10:58:38.929Z,87.58
2022-11-30T11:01:11.533Z,87.69
2022-11-30T11:03:38.811Z,87.55
2022-11-30T11:06:07.373Z,87.95
2022-11-30T11:08:35.282Z,88.04
2022-11-30T11:11:02.687Z,87.96
2022-11-30T11:13:43.689Z,87.96
2022-11-30T11:16:13.449Z,87.31
2022-11-30T11:18:57.187Z,87.15
2022-11-30T11:21:24.840Z,87.77
2022-11-30T11:23:56.583Z,87.89
2022-11-30T11:26:29.801Z,87.94
2022-11-30T11:29:02.324Z,87.08
2022-11-30T11:31:46.433Z,88.26
2022-11-30T11:34:32.900Z,88.28
2022-11-30T11:37:29.032Z,88.97
2022-11-30T11:40:17.173Z,88.58
2022-11-30T11:42:54.263Z,88.27
2022-11-30T11:45:32.208Z,88.09
2022-11-30T11:48:08.140Z,88.32
2022-11-30T11:53:57.072Z,88.41
2022-11-30T11:56:37.747Z,88.46
2022-11-30T11:59:10.704Z,88.98
2022-11-30T12:02:29.214Z,88.52
2022-11-30T12:05:05.581Z,88.53
2022-11-30T12:08:43.398Z,89.14
2022-11-30T12:11:30.369Z,89.29
2022-11-30T12:13:57.494Z,89.43
2022-11-30T12:16:41.233Z,89.04
2022-11-30T12:19:41.383Z,89.78
2022-11-30T12:23:17.308Z,89.72
2022-11-30T12:27:08.437Z,89.96
2022-11-30T12:30:02.253Z,90.37
2022-11-30T12:33:25.352Z,89.94
2022-11-30T12:36:19.959Z,89.67
2022-11-30T12:39:18.000Z,89.75
2022-11-30T12:41:54.874Z,90.07
2022-11-30T12:45:04.045Z,89.72
2022-11-30T12:48:23.911Z,90.57
2022-11-30T12:51:30.083Z,90.59
2022-11-30T12:54:38.457Z,90.44
2022-11-30T12:57:21.052Z,90.85
2022-11-30T13:00:24.074Z,90.56
2022-11-30T13:03:30.230Z,90.58
2022-11-30T13:06:01.971Z,91.49
2022-11-30T13:08:43.705Z,91.28
2022-11-30T13:11:41.020Z,91.34
2022-11-30T13:14:22.664Z,92.16
2022-11-30T13:17:06.251Z,91.48
2022-11-30T13:20:04.600Z,91.42
2022-11-30T13:23:10.310Z,91.03
2022-11-30T13:26:14.017Z,91.11
2022-11-30T13:29:22.840Z,91.57
2022-11-30T13:32:56.844Z,91.02
2022-11-30T13:35:29.552Z,91.16
2022-11-30T13:38:37.917Z,91.43
2022-11-30T13:41:08.725Z,90.69
2022-11-30T13:43:48.203Z,91.51
2022-11-30T13:46:23.751Z,90.95
2022-11-30T13:49:33.906Z,91.19
2022-11-30T13:52:22.237Z,91.38
2022-11-30T13:54:57.181Z,91.29
2022-11-30T13:57:30.400Z,92.13
2022-11-30T14:00:22.412Z,92.38
2022-11-30T14:02:54.395Z,91.97
2022-11-30T14:05:39.983Z,91.66
2022-11-30T14:08:09.945Z,92.19
2022-11-30T14:10:43.141Z,91.47
2022-11-30T14:13:10.401Z,91.63
2022-11-30T14:15:40.949Z,92.13
2022-11-30T14:18:08.081Z,92.33
2022-11-30T14:20:53.770Z,93.20
2022-11-30T14:23:43.633Z,93.08
2022-11-30T14:26:48.146Z,92.33
2022-11-30T14:29:31.270Z,93.27
2022-11-30T14:32:23.815Z,92.26
2022-11-30T14:35:00.935Z,92.44
2022-11-30T14:38:00.407Z,92.41
2022-11-30T14:40:30.918Z,92.56
2022-11-30T14:43:02.162Z,93.25
2022-11-30T14:45:33.890Z,92.92
2022-11-30T14:48:16.853Z,92.70
2022-11-30T14:51:01.388Z,93.13
2022-11-30T14:53:54.923Z,93.32
2022-11-30T14:56:39.536Z,93.60
2022-11-30T14:59:33.644Z,93.49
2022-11-30T15:02:14.032Z,93.02
2022-11-30T15:04:41.159Z,92.88
2022-11-30T15:07:15.357Z,93.40
2022-11-30T15:09:47.457Z,93.18
2022-11-30T15:12:24.715Z,93.54
2022-11-30T15:15:17.851Z,93.21
2022-11-30T15:17:50.173Z,93.78
2022-11-30T15:20:38.945Z,93.75
2022-11-30T15:23:12.775Z,93.75
2022-11-30T15:25:50.680Z,93.29
2022-11-30T15:28:37.472Z,93.16
2022-11-30T15:31:13.216Z,93.20
2022-11-30T15:33:51.135Z,93.71
2022-11-30T15:36:32.440Z,93.07
2022-11-30T15:39:08.467Z,93.81
2022-11-30T15:41:36.552Z,94.13
2022-11-30T15:44:03.739Z,94.69
2022-11-30T15:46:46.415Z,94.21
2022-11-30T15:49:28.453Z,93.71
2022-11-30T15:52:12.915Z,93.50
2022-11-30T15:54:57.220Z,93.76
2022-11-30T15:57:27.662Z,93.52
2022-11-30T16:00:22.185Z,93.23
2022-11-30T16:03:06.490Z,94.13
2022-11-30T16:05:33.923Z,93.69
2022-11-30T16:08:03.342Z,93.71
2022-11-30T16:10:40.032Z,93.81
2022-11-30T16:13:07.465Z,93.79
2022-11-30T16:15:36.743Z,93.71
2022-11-30T16:18:28.283Z,94.10
2022-11-30T16:21:01.430Z,94.84
2022-11-30T16:23:29.209Z,94.31
2022-11-30T16:25:56.545Z,94.21
2022-11-30T16:28:23.964Z,93.83
2022-11-30T16:30:51.690Z,93.44
2022-11-30T16:33:22.736Z,93.96
2022-11-30T16:35:57.865Z,93.85
2022-11-30T16:38:26.462Z,93.41
2022-11-30T16:40:55.785Z,93.79
2022-11-30T16:43:25.640Z,94.20
2022-11-30T16:45:52.750Z,93.55
2022-11-30T16:48:20.145Z,94.08
2022-11-30T16:50:47.320Z,94.38
2022-11-30T16:53:18.633Z,94.66
2022-11-30T16:55:45.616Z,95.39
2022-11-30T16:58:14.482Z,95.45
2022-11-30T17:00:41.688Z,94.71
2022-11-30T17:03:35.837Z,95.70
2022-11-30T17:06:03.342Z,95.39
2022-11-30T17:08:30.441Z,96.05
2022-11-30T17:10:57.517Z,96.05
2022-11-30T17:13:24.549Z,95.11
2022-11-30T17:15:51.663Z,94.46
2022-11-30T17:18:18.772Z,94.69
2022-11-30T17:20:45.936Z,94.93
2022-11-30T17:23:13.049Z,94.63
2022-11-30T17:25:40.616Z,94.87
2022-11-30T17:28:08.032Z,95.80
2022-11-30T17:30:36.198Z,95.64
2022-11-30T17:33:03.311Z,95.50
2022-11-30T17:35:30.740Z,96.24
2022-11-30T17:37:57.776Z,95.77
2022-11-30T17:40:24.849Z,95.08
2022-11-30T17:42:52.174Z,95.36
2022-11-30T17:45:19.215Z,94.72
2022-11-30T17:47:46.300Z,94.27
2022-11-30T17:50:14.644Z,94.50
2022-11-30T17:52:41.722Z,93.89
2022-11-30T17:55:09.602Z,94.46
2022-11-30T17:57:38.586Z,95.19
2022-11-30T18:00:07.973Z,94.87
2022-11-30T18:02:35.038Z,95.10
2022-11-30T18:05:02.097Z,94.76
2022-11-30T18:07:29.342Z,94.71
2022-11-30T18:10:01.751Z,95.82
2022-11-30T18:12:28.972Z,95.27
2022-11-30T18:14:56.308Z,95.24
2022-11-30T18:17:23.649Z,94.96
2022-11-30T18:19:51.313Z,94.67
2022-11-30T18:22:18.324Z,95.55
2022-11-30T18:24:45.802Z,94.54
2022-11-30T18:27:12.943Z,95.61
2022-11-30T18:29:40.036Z,95.19
2022-11-30T18:32:08.048Z,94.80
2022-11-30T18:34:35.459Z,94.91
2022-11-30T18:37:02.588Z,94.78
2022-11-30T18:39:29.701Z,94.81
2022-11-30T18:41:56.842Z,95.42
2022-11-30T18:44:23.941Z,94.43
2022-11-30T18:46:50.921Z,94.83
2022-11-30T18:49:20.757Z,94.87
2022-11-30T18:51:47.818Z,94.99
2022-11-30T18:54:14.900Z,94.73
2022-11-30T18:56:42.050Z,94.40
2022-11-30T18:59:15.877Z,93.73
2022-11-30T19:01:43.408Z,94.66
2022-11-30T19:04:11.480Z,93.77
2022-11-30T19:06:41.690Z,93.95
2022-11-30T19:09:14.178Z,94.33
2022-11-30T19:11:43.003Z,94.11
2022-11-30T19:14:14.488Z,93.67
2022-11-30T19:16:42.077Z,93.67
2022-11-30T19:19:14.024Z,93.34
2022-11-30T19:21:45.214Z,93.28
2022-11-30T19:24:12.217Z,93.28
2022-11-30T19:26:40.140Z,93.37
2022-11-30T19:29:07.690Z,93.12
2022-11-30T19:31:34.735Z,93.06
2022-11-30T19:34:05.569Z,93.64
2022-11-30T19:36:36.322Z,93.25
2022-11-30T19:39:03.921Z,93.39
2022-11-30T19:41:31.076Z,92.42
2022-11-30T19:44:04.612Z,93.13
2022-11-30T19:46:32.930Z,92.14
2022-11-30T19:49:01.472Z,93.44
2022-11-30T19:51:31.132Z,92.29
2022-11-30T19:54:00.961Z,93.15
2022-11-30T19:56:31.919Z,92.42
2022-11-30T19:59:04.551Z,92.70
2022-11-30T20:01:33.829Z,92.02
2022-11-30T20:04:01.019Z,92.46
2022-11-30T20:06:37.472Z,92.78
2022-11-30T20:09:06.948Z,93.22
2022-11-30T20:11:35.317Z,93.55
2022-11-30T20:14:02.462Z,94.00
2022-11-30T20:16:29.922Z,94.30
2022-11-30T20:19:01.436Z,93.94
2022-11-30T20:21:34.325Z,94.06
2022-11-30T20:24:10.355Z,93.71
2022-11-30T20:26:42.424Z,93.48
2022-11-30T20:29:16.199Z,93.52
2022-11-30T20:31:46.732Z,93.36
2022-11-30T20:34:13.704Z,93.84
2022-11-30T20:36:40.819Z,93.14
2022-11-30T20:39:08.030Z,93.90
2022-11-30T20:41:35.168Z,93.73
2022-11-30T20:44:02.165Z,94.07
2022-11-30T20:46:33.575Z,94.13
2022-11-30T20:49:03.382Z,93.11
2022-11-30T20:51:34.680Z,94.01
2022-11-30T20:54:06.858Z,94.15
2022-11-30T20:56:37.178Z,92.99
2022-11-30T20:59:23.544Z,93.23
2022-11-30T21:01:50.720Z,94.12
2022-11-30T21:04:17.743Z,93.36
2022-11-30T21:06:47.913Z,94.06
2022-11-30T21:09:18.701Z,93.74
2022-11-30T21:11:47.594Z,93.36
2022-11-30T21:14:15.566Z,93.27
2022-11-30T21:16:42.682Z,93.32
2022-11-30T21:19:11.691Z,93.12
2022-11-30T21:21:38.778Z,93.50
2022-11-30T21:24:09.189Z,93.40
2022-11-30T21:26:40.945Z,92.18
2022-11-30T21:29:18.141Z,92.65
2022-11-30T21:31:45.565Z,93.26
2022-11-30T21:34:13.347Z,92.43
2022-11-30T21:36:40.485Z,92.78
2022-11-30T21:39:08.500Z,93.37
2022-11-30T21:41:40.167Z,92.91
2022-11-30T21:44:12.189Z,92.79
2022-11-30T21:46:39.871Z,92.97
2022-11-30T21:49:07.524Z,92.92
2022-11-30T21:51:34.518Z,92.70
2022-11-30T21:54:06.995Z,92.93
2022-11-30T21:56:38.231Z,93.25
2022-11-30T21:59:08.765Z,93.57
2022-11-30T22:01:40.050Z,93.30
2022-11-30T22:04:10.125Z,92.80
2022-11-30T22:06:39.953Z,92.81
2022-11-30T22:09:14.482Z,92.42
2022-11-30T22:11:45.007Z,92.57
2022-11-30T22:14:16.773Z,92.89
2022-11-30T22:16:44.844Z,93.14
2022-11-30T22:19:11.863Z,92.93
2022-11-30T22:21:38.919Z,92.80
2022-11-30T22:24:11.992Z,92.44
2022-11-30T22:26:42.119Z,92.80
2022-11-30T22:29:22.321Z,93.64
2022-11-30T22:31:53.554Z,92.39
2022-11-30T22:34:21.287Z,93.09
2022-11-30T22:36:48.446Z,93.17
2022-11-30T22:39:21.859Z,93.02
2022-11-30T22:41:55.183Z,92.47
2022-11-30T22:44:22.962Z,92.92
2022-11-30T22:46:50.048Z,92.89
2022-11-30T22:49:21.615Z,93.84
2022-11-30T22:51:49.911Z,94.24
2022-11-30T22:54:17.715Z,94.11
2022-11-30T22:56:46.335Z,93.74
2022-11-30T22:59:14.836Z,92.96
2022-11-30T23:01:48.493Z,93.33
2022-11-30T23:04:22.836Z,93.81
2022-11-30T23:06:50.785Z,93.20
2022-11-30T23:09:23.104Z,93.74
2022-11-30T23:11:51.466Z,94.17
2022-11-30T23:14:18.838Z,93.34
2022-11-30T23:16:46.329Z,94.51
2022-11-30T23:19:14.742Z,94.38
2022-11-30T23:21:46.722Z,94.38
2022-11-30T23:24:23.748Z,93.76
2022-11-30T23:26:50.869Z,94.09
2022-11-30T23:29:18.654Z,94.55
2022-11-30T23:31:46.923Z,93.77
2022-11-30T23:34:21.482Z,94.45
2022-11-30T23:36:50.044Z,94.46
2022-11-30T23:39:19.647Z,94.88
2022-11-30T23:41:46.976Z,94.70
2022-11-30T23:44:14.329Z,94.77
2022-11-30T23:46:41.391Z,95.03
2022-11-30T23:49:08.537Z,94.75
2022-11-30T23:51:35.590Z,95.30
2022-11-30T23:54:03.002Z,94.83
2022-11-30T23:56:30.047Z,94.85
2022-11-30T23:58:57.038Z,94.67
